createdAt,value
2022-11-12T00:03:22.661Z,1033.3
2022-11-12T00:08:15.175Z,1033.37
2022-11-12T00:13:07.796Z,1033.38
2022-11-12T00:18:00.255Z,1033.41
2022-11-12T00:22:52.537Z,1033.51
2022-11-12T00:27:45.070Z,1033.5
2022-11-12T00:32:37.763Z,1033.49
2022-11-12T00:37:30.386Z,1033.47
2022-11-12T00:42:23.085Z,1033.42
2022-11-12T00:47:15.715Z,1033.34
2022-11-12T00:52:08.429Z,1033.35
2022-11-12T00:57:01.068Z,1033.42
2022-11-12T01:01:53.379Z,1033.44
2022-11-12T01:06:46.135Z,1033.38
2022-11-12T01:11:38.728Z,1033.41
2022-11-12T01:16:31.226Z,1033.39
2022-11-12T01:21:23.662Z,1033.28
2022-11-12T01:26:16.109Z,1033.24
2022-11-12T01:31:08.781Z,1033.21
2022-11-12T01:40:53.854Z,1033.16
2022-11-12T01:50:39.189Z,1033.16
2022-11-12T02:00:24.288Z,1033.15
2022-11-12T02:05:16.802Z,1033.14
2022-11-12T02:10:09.144Z,1033.16
2022-11-12T02:15:01.595Z,1033.17
2022-11-12T02:19:54.107Z,1033.22
2022-11-12T02:24:46.672Z,1033.22
2022-11-12T02:29:39.256Z,1033.3
2022-11-12T02:34:31.892Z,1033.4
2022-11-12T02:39:24.638Z,1033.4
2022-11-12T02:44:17.065Z,1033.37
2022-11-12T02:49:09.685Z,1033.38
2022-11-12T02:54:02.363Z,1033.36
2022-11-12T02:58:54.975Z,1033.38
2022-11-12T03:03:47.600Z,1033.35
2022-11-12T03:08:40.269Z,1033.31
2022-11-12T03:13:32.570Z,1033.29
2022-11-12T03:18:25.504Z,1033.13
2022-11-12T03:23:17.550Z,1033.09
2022-11-12T03:28:10.258Z,1033.1
2022-11-12T03:33:02.866Z,1033.18
2022-11-12T03:37:55.227Z,1033.19
2022-11-12T03:42:47.757Z,1033.26
2022-11-12T03:47:40.451Z,1033.24
2022-11-12T03:52:32.806Z,1033.24
2022-11-12T03:57:25.601Z,1033.25
2022-11-12T04:02:18.141Z,1033.29
2022-11-12T04:07:10.736Z,1033.25
2022-11-12T04:12:03.151Z,1033.26
2022-11-12T04:16:55.452Z,1033.28
2022-11-12T04:21:48.049Z,1033.23
2022-11-12T04:26:40.775Z,1033.26
2022-11-12T04:31:33.239Z,1033.25
2022-11-12T04:36:25.741Z,1033.3
2022-11-12T04:41:18.213Z,1033.32
2022-11-12T04:46:10.852Z,1033.39
2022-11-12T04:51:03.371Z,1033.4
2022-11-12T04:55:55.845Z,1033.38
2022-11-12T05:00:48.255Z,1033.39
2022-11-12T05:05:40.912Z,1033.29
2022-11-12T05:10:33.247Z,1033.28
2022-11-12T05:15:25.840Z,1033.29
2022-11-12T05:20:18.423Z,1033.36
2022-11-12T05:25:11.135Z,1033.46
2022-11-12T05:30:03.763Z,1033.39
2022-11-12T05:34:56.320Z,1033.31
2022-11-12T05:39:48.996Z,1033.27
2022-11-12T05:44:41.715Z,1033.23
2022-11-12T05:49:34.181Z,1033.22
2022-11-12T05:54:26.982Z,1033.32
2022-11-12T05:59:19.638Z,1033.3
2022-11-12T06:04:12.431Z,1033.3
2022-11-12T06:09:04.888Z,1033.48
2022-11-12T06:13:59.469Z,1033.54
2022-11-12T06:18:51.799Z,1033.59
2022-11-12T06:23:44.608Z,1033.55
2022-11-12T06:28:37.116Z,1033.43
2022-11-12T06:33:29.948Z,1033.42
2022-11-12T06:38:22.672Z,1033.52
2022-11-12T06:43:15.448Z,1033.52
2022-11-12T06:48:10.089Z,1033.42
2022-11-12T06:57:54.681Z,1033.32
2022-11-12T07:07:39.590Z,1033.38
2022-11-12T07:17:24.895Z,1033.41
2022-11-12T07:27:10.290Z,1033.54
2022-11-12T07:32:03.012Z,1033.45
2022-11-12T07:36:55.771Z,1033.37
2022-11-12T07:41:48.470Z,1033.32
2022-11-12T07:46:40.817Z,1033.29
2022-11-12T07:51:33.687Z,1033.31
2022-11-12T07:56:26.504Z,1033.3
2022-11-12T08:01:19.603Z,1033.27
2022-11-12T08:06:11.799Z,1033.37
2022-11-12T08:11:04.398Z,1033.43
2022-11-12T08:15:57.213Z,1033.48
2022-11-12T08:20:47.006Z,1033.55
2022-11-12T08:25:40.411Z,1033.6
2022-11-12T08:30:32.870Z,1033.59
2022-11-12T08:35:25.463Z,1033.55
2022-11-12T08:40:18.315Z,1033.48
2022-11-12T08:45:11.037Z,1033.57
2022-11-12T08:50:03.453Z,1033.5
2022-11-12T08:54:56.064Z,1033.44
2022-11-12T08:59:48.935Z,1033.4
2022-11-12T09:04:41.332Z,1033.33
2022-11-12T09:09:33.797Z,1033.35
2022-11-12T09:14:26.244Z,1033.33
2022-11-12T09:19:19.031Z,1033.32
2022-11-12T09:24:11.382Z,1033.35
2022-11-12T09:29:04.042Z,1033.39
2022-11-12T09:33:56.501Z,1033.39
2022-11-12T09:38:49.337Z,1033.38
2022-11-12T09:43:41.897Z,1033.39
2022-11-12T09:48:34.452Z,1033.31
2022-11-12T09:53:26.996Z,1033.25
2022-11-12T09:58:19.660Z,1033.23
2022-11-12T10:03:12.106Z,1033.24
2022-11-12T10:08:04.447Z,1033.26
2022-11-12T10:12:57.084Z,1033.27
2022-11-12T10:17:49.979Z,1033.25
2022-11-12T10:22:42.485Z,1033.29
2022-11-12T10:27:35.342Z,1033.23
2022-11-12T10:32:28.229Z,1033.18
2022-11-12T10:37:21.245Z,1033.08
2022-11-12T10:42:13.833Z,1033.06
2022-11-12T10:47:06.305Z,1032.98
2022-11-12T10:51:58.880Z,1032.93
2022-11-12T10:56:55.400Z,1032.88
2022-11-12T11:01:45.812Z,1032.8
2022-11-12T11:06:36.358Z,1032.75
2022-11-12T11:11:28.841Z,1032.71
2022-11-12T11:16:21.312Z,1032.69
2022-11-12T11:21:13.971Z,1032.64
2022-11-12T11:26:06.618Z,1032.62
2022-11-12T11:30:59.500Z,1032.57
2022-11-12T11:35:52.442Z,1032.57
2022-11-12T11:40:44.862Z,1032.57
2022-11-12T11:45:37.407Z,1032.5
2022-11-12T11:50:29.883Z,1032.48
2022-11-12T11:55:22.738Z,1032.44
2022-11-12T12:00:15.303Z,1032.43
2022-11-12T12:05:08.023Z,1032.41
2022-11-12T12:10:03.611Z,1032.39
2022-11-12T12:14:53.430Z,1032.41
2022-11-12T12:19:45.855Z,1032.37
2022-11-12T12:24:37.914Z,1032.27
2022-11-12T12:29:30.625Z,1032.17
2022-11-12T12:34:23.437Z,1032.15
2022-11-12T12:39:15.769Z,1032.15
2022-11-12T12:44:08.569Z,1032.12
2022-11-12T12:49:01.388Z,1032.07
2022-11-12T12:53:54.216Z,1032.05
2022-11-12T12:58:46.476Z,1031.99
2022-11-12T13:03:39.178Z,1031.94
2022-11-12T13:08:31.807Z,1031.81
2022-11-12T13:13:29.090Z,1031.75
2022-11-12T13:23:09.730Z,1031.73
2022-11-12T13:32:55.069Z,1031.71
2022-11-12T13:42:39.987Z,1031.68
2022-11-12T13:47:32.581Z,1031.74
2022-11-12T13:52:25.445Z,1031.75
2022-11-12T13:57:18.979Z,1031.76
2022-11-12T14:02:11.281Z,1031.76
2022-11-12T14:07:04.125Z,1031.76
2022-11-12T14:11:56.888Z,1031.78
2022-11-12T14:16:49.460Z,1031.81
2022-11-12T14:21:41.965Z,1031.85
2022-11-12T14:26:34.554Z,1031.76
2022-11-12T14:31:27.319Z,1031.68
2022-11-12T14:36:19.756Z,1031.62
2022-11-12T14:41:12.392Z,1031.57
2022-11-12T14:46:05.066Z,1031.55
2022-11-12T14:50:57.753Z,1031.63
2022-11-12T14:55:50.290Z,1031.59
2022-11-12T15:00:43.222Z,1031.6
2022-11-12T15:05:35.521Z,1031.6
2022-11-12T15:10:28.345Z,1031.58
2022-11-12T15:15:20.914Z,1031.59
2022-11-12T15:20:13.496Z,1031.57
2022-11-12T15:25:06.047Z,1031.58
2022-11-12T15:29:58.821Z,1031.53
2022-11-12T15:34:51.471Z,1031.56
2022-11-12T15:39:43.933Z,1031.46
2022-11-12T15:44:36.467Z,1031.48
2022-11-12T15:49:29.257Z,1031.42
2022-11-12T15:54:21.872Z,1031.49
2022-11-12T15:59:14.524Z,1031.47
2022-11-12T16:04:07.012Z,1031.44
2022-11-12T16:08:59.726Z,1031.47
2022-11-12T16:13:52.352Z,1031.4
2022-11-12T16:18:45.004Z,1031.37
2022-11-12T16:23:37.661Z,1031.38
2022-11-12T16:28:30.529Z,1031.41
2022-11-12T16:33:23.331Z,1031.47
2022-11-12T16:38:15.977Z,1031.55
2022-11-12T16:43:08.472Z,1031.54
2022-11-12T16:48:01.561Z,1031.49
2022-11-12T16:52:54.043Z,1031.5
2022-11-12T16:57:46.815Z,1031.51
2022-11-12T17:02:43.742Z,1031.43
2022-11-12T17:07:32.229Z,1031.41
2022-11-12T17:12:24.961Z,1031.39
2022-11-12T17:17:17.836Z,1031.29
2022-11-12T17:22:10.375Z,1031.29
2022-11-12T17:27:03.220Z,1031.17
2022-11-12T17:31:55.284Z,1031.17
2022-11-12T17:36:47.812Z,1031.1
2022-11-12T17:41:40.510Z,1031.13
2022-11-12T17:46:33.222Z,1031.13
2022-11-12T17:51:25.772Z,1031.15
2022-11-12T17:56:18.350Z,1031.24
2022-11-12T18:01:11.158Z,1031.24
2022-11-12T18:06:04.863Z,1031.26
2022-11-12T18:10:56.377Z,1031.19
2022-11-12T18:15:48.943Z,1031.2
2022-11-12T18:20:41.669Z,1031.1
2022-11-12T18:30:26.976Z,1031.09
2022-11-12T18:40:12.078Z,1031.12
2022-11-12T18:45:04.873Z,1031.12
2022-11-12T18:49:57.304Z,1031.1
2022-11-12T18:54:49.786Z,1031.1
2022-11-12T18:59:42.516Z,1031.01
2022-11-12T19:04:35.117Z,1031.1
2022-11-12T19:09:27.428Z,1031.07
2022-11-12T19:14:20.019Z,1031.06
2022-11-12T19:19:12.291Z,1031.1
2022-11-12T19:24:05.057Z,1031.09
2022-11-12T19:28:57.865Z,1031.1
2022-11-12T19:33:50.706Z,1031.13
2022-11-12T19:38:43.421Z,1031.19
2022-11-12T19:43:35.993Z,1031.12
2022-11-12T19:48:28.557Z,1031.19
2022-11-12T19:53:21.810Z,1031.2
2022-11-12T19:58:15.331Z,1031.14
2022-11-12T20:03:07.751Z,1031.25
2022-11-12T20:08:00.103Z,1031.28
2022-11-12T20:12:52.766Z,1031.34
2022-11-12T20:17:45.325Z,1031.34
2022-11-12T20:22:37.982Z,1031.32
2022-11-12T20:27:30.335Z,1031.23
2022-11-12T20:32:22.507Z,1031.14
2022-11-12T20:37:15.085Z,1031.19
2022-11-12T20:42:07.923Z,1031.18
2022-11-12T20:47:00.500Z,1031.18
2022-11-12T20:51:53.232Z,1031.23
2022-11-12T20:56:45.872Z,1031.19
2022-11-12T21:01:38.650Z,1031.14
2022-11-12T21:06:31.153Z,1031.15
2022-11-12T21:11:23.718Z,1031.11
2022-11-12T21:16:16.209Z,1031.11
2022-11-12T21:21:08.924Z,1031.03
2022-11-12T21:26:01.412Z,1031.08
2022-11-12T21:30:53.913Z,1031
2022-11-12T21:35:46.607Z,1031
2022-11-12T21:40:39.311Z,1031.06
2022-11-12T21:45:31.682Z,1030.96
2022-11-12T21:50:24.415Z,1030.95
2022-11-12T21:55:16.791Z,1030.98
2022-11-12T22:00:39.493Z,1031
2022-11-12T22:05:01.996Z,1030.93
2022-11-12T22:09:56.878Z,1030.92
2022-11-12T22:14:47.905Z,1030.83
2022-11-12T22:19:39.757Z,1030.79
2022-11-12T22:24:32.123Z,1030.72
2022-11-12T22:29:24.728Z,1030.72
2022-11-12T22:34:17.440Z,1030.66
2022-11-12T22:39:10.219Z,1030.59
2022-11-12T22:44:02.442Z,1030.6
2022-11-12T22:48:54.975Z,1030.52
2022-11-12T22:53:47.590Z,1030.54
2022-11-12T23:03:27.845Z,1030.54
2022-11-12T23:08:21.494Z,1030.46
2022-11-12T23:13:13.935Z,1030.4
2022-11-12T23:18:06.492Z,1030.34
2022-11-12T23:22:59.171Z,1030.26
2022-11-12T23:27:51.411Z,1030.3
2022-11-12T23:32:43.963Z,1030.22
2022-11-12T23:37:36.726Z,1030.24
2022-11-12T23:42:29.345Z,1030.24
2022-11-12T23:47:21.783Z,1030.27
2022-11-12T23:57:06.861Z,1030.08
